Time;durP1;ratioP1;P1;durP2;ratioP2;P2;SDS_P1;SDS_P2;PMS_P1;PMS_P2;Temp;Humidity;BMP_temperature;BMP_pressure;BME280_temperature;BME280_humidity;BME280_pressure;Samples;Min_cycle;Max_cycle;Signal;HPM_P1;HPM_P2
2022/05/27 00:01:35;;;;;;;;;;;11.30;68.40;;;;;;5091876;28;19923;-75
2022/05/27 00:04:02;;;;;;;;;;;11.30;68.50;;;;;;5110120;28;20324;-73
2022/05/27 00:06:28;;;;;;;;;;;11.30;68.60;;;;;;5109980;28;19916;-73
2022/05/27 00:08:54;;;;;;;;;;;11.20;68.70;;;;;;5110060;28;19953;-73
2022/05/27 00:11:22;;;;;;;;;;;11.20;68.80;;;;;;5091690;28;20014;-74
2022/05/27 00:13:48;;;;;;;;;;;11.20;68.80;;;;;;5109865;28;19912;-74
2022/05/27 00:16:14;;;;;;;;;;;11.20;68.80;;;;;;5091686;28;19961;-74
2022/05/27 00:18:40;;;;;;;;;;;11.10;68.90;;;;;;5074746;28;19963;-73
2022/05/27 00:21:05;;;;;;;;;;;11.10;69.20;;;;;;5109919;28;20278;-74
2022/05/27 00:23:31;;;;;;;;;;;11.10;69.40;;;;;;5108795;28;20342;-73
2022/05/27 00:25:57;;;;;;;;;;;11.20;69.60;;;;;;5109774;28;19919;-75
2022/05/27 00:28:22;;;;;;;;;;;11.30;69.50;;;;;;5091426;28;19911;-75
2022/05/27 00:30:48;;;;;;;;;;;11.40;69.40;;;;;;5091336;28;19965;-75
2022/05/27 00:33:14;;;;;;;;;;;11.50;69.10;;;;;;5091402;28;19946;-74
2022/05/27 00:35:39;;;;;;;;;;;11.40;68.90;;;;;;5109600;28;19955;-76
2022/05/27 00:38:05;;;;;;;;;;;11.40;68.90;;;;;;5109561;28;19914;-75
2022/05/27 00:40:42;;;;;;;;;;;11.40;69.00;;;;;;5109498;28;20320;-74
2022/05/27 00:43:07;;;;;;;;;;;11.40;69.20;;;;;;5109344;28;20354;-74
2022/05/27 00:45:34;;;;;;;;;;;11.40;69.20;;;;;;5109315;28;20006;-75
2022/05/27 00:48:01;;;;;;;;;;;11.40;69.30;;;;;;5090933;28;19907;-75
2022/05/27 00:50:29;;;;;;;;;;;11.40;69.40;;;;;;5109315;28;19960;-75
2022/05/27 00:52:55;;;;;;;;;;;11.30;69.50;;;;;;5109099;28;19918;-74
2022/05/27 00:55:22;;;;;;;;;;;11.20;69.50;;;;;;5090826;28;19958;-75
2022/05/27 00:57:53;;;;;;;;;;;11.10;69.40;;;;;;5109014;28;20284;-75
2022/05/27 01:00:21;;;;;;;;;;;11.00;69.40;;;;;;5109071;28;19907;-74
2022/05/27 01:02:47;;;;;;;;;;;10.90;69.60;;;;;;5108998;28;19970;-74
2022/05/27 01:05:14;;;;;;;;;;;10.90;69.60;;;;;;5090810;28;19957;-74
2022/05/27 01:07:39;;;;;;;;;;;10.90;69.90;;;;;;5090771;28;19987;-74
2022/05/27 01:10:08;;;;;;;;;;;10.90;70.00;;;;;;5109005;28;19958;-75
2022/05/27 01:12:56;;;;;;;;;;;10.90;70.30;;;;;;5090644;28;20019;-73
2022/05/27 01:15:40;;;;;;;;;;;10.80;70.20;;;;;;5090460;28;20027;-73
2022/05/27 01:18:12;;;;;;;;;;;10.70;70.10;;;;;;5090445;28;19919;-73
2022/05/27 01:20:42;;;;;;;;;;;10.70;70.30;;;;;;5108620;28;19939;-75
2022/05/27 01:23:22;;;;;;;;;;;10.70;70.30;;;;;;5090409;28;19914;-75
2022/05/27 01:25:53;;;;;;;;;;;10.70;70.20;;;;;;5109355;28;19908;-74
2022/05/27 01:28:31;;;;;;;;;;;10.80;70.20;;;;;;5108730;28;19908;-75
2022/05/27 01:31:00;;;;;;;;;;;10.80;70.20;;;;;;5090365;28;20002;-73
2022/05/27 01:33:31;;;;;;;;;;;10.80;70.20;;;;;;5090237;28;19908;-73
2022/05/27 01:36:02;;;;;;;;;;;10.70;70.20;;;;;;5108257;28;20453;-75
2022/05/27 01:38:29;;;;;;;;;;;10.70;70.20;;;;;;5108766;28;19908;-75
2022/05/27 01:41:07;;;;;;;;;;;10.70;70.30;;;;;;5090081;28;19925;-74
2022/05/27 01:43:47;;;;;;;;;;;10.60;70.40;;;;;;5108367;28;19912;-74
2022/05/27 01:46:18;;;;;;;;;;;10.60;70.60;;;;;;5108725;28;19916;-74
2022/05/27 01:49:02;;;;;;;;;;;10.60;70.60;;;;;;5108039;28;19924;-73
2022/05/27 01:51:31;;;;;;;;;;;10.60;70.70;;;;;;5090071;28;20345;-75
2022/05/27 01:54:00;;;;;;;;;;;10.60;70.60;;;;;;5108306;28;19918;-75
2022/05/27 01:56:28;;;;;;;;;;;10.60;70.60;;;;;;5089998;28;19908;-75
2022/05/27 01:58:56;;;;;;;;;;;10.60;70.70;;;;;;5090172;28;20007;-75
2022/05/27 02:01:32;;;;;;;;;;;10.60;70.60;;;;;;5108265;28;20352;-75
2022/05/27 02:03:58;;;;;;;;;;;10.70;70.50;;;;;;5108215;28;19962;-74
2022/05/27 02:06:23;;;;;;;;;;;10.70;70.40;;;;;;5108200;28;19955;-75
2022/05/27 02:08:54;;;;;;;;;;;10.70;70.30;;;;;;5089971;28;19908;-75
2022/05/27 02:11:21;;;;;;;;;;;10.70;70.30;;;;;;5108265;28;20311;-74
2022/05/27 02:13:58;;;;;;;;;;;10.70;70.30;;;;;;5108243;28;20007;-75
2022/05/27 02:16:45;;;;;;;;;;;10.60;70.40;;;;;;5108182;28;19994;-73
2022/05/27 02:19:19;;;;;;;;;;;10.60;70.30;;;;;;5108330;28;20488;-74
2022/05/27 02:21:50;;;;;;;;;;;10.50;70.30;;;;;;5107949;28;19916;-75
2022/05/27 02:24:20;;;;;;;;;;;10.50;70.40;;;;;;5089582;28;20209;-74
2022/05/27 02:26:48;;;;;;;;;;;10.50;70.40;;;;;;5108139;28;19908;-74
2022/05/27 02:29:16;;;;;;;;;;;10.50;70.50;;;;;;5107913;28;19951;-74
2022/05/27 02:31:45;;;;;;;;;;;10.50;70.50;;;;;;5107876;28;19915;-75
2022/05/27 02:37:10;;;;;;;;;;;10.50;70.60;;;;;;5108100;28;20313;-75
2022/05/27 02:39:36;;;;;;;;;;;10.50;70.70;;;;;;5107825;28;20273;-74
2022/05/27 02:42:08;;;;;;;;;;;10.40;70.70;;;;;;5089579;28;19965;-74
2022/05/27 02:44:54;;;;;;;;;;;10.40;70.80;;;;;;5089613;28;19912;-74
2022/05/27 02:47:20;;;;;;;;;;;10.30;70.90;;;;;;5108919;28;19908;-75
2022/05/27 02:49:45;;;;;;;;;;;10.30;71.00;;;;;;5092780;28;19965;-74
2022/05/27 02:52:11;;;;;;;;;;;10.20;71.10;;;;;;5093208;28;19912;-72
2022/05/27 02:54:36;;;;;;;;;;;10.20;71.20;;;;;;5111498;28;19964;-72
2022/05/27 02:57:08;;;;;;;;;;;10.20;71.30;;;;;;5093217;28;19912;-72
2022/05/27 02:59:35;;;;;;;;;;;10.20;71.40;;;;;;5111584;28;20350;-72
2022/05/27 03:02:08;;;;;;;;;;;10.20;71.50;;;;;;5111335;28;20341;-74
2022/05/27 03:04:34;;;;;;;;;;;10.20;71.60;;;;;;5093191;28;19912;-72
2022/05/27 03:07:18;;;;;;;;;;;10.20;71.70;;;;;;5111138;28;20107;-73
2022/05/27 03:09:54;;;;;;;;;;;10.30;71.70;;;;;;5111304;28;20281;-73
2022/05/27 03:12:32;;;;;;;;;;;10.40;71.80;;;;;;5093077;28;19908;-72
2022/05/27 03:15:04;;;;;;;;;;;10.40;71.80;;;;;;5111065;28;19908;-72
2022/05/27 03:17:33;;;;;;;;;;;10.40;71.70;;;;;;5111034;28;20382;-73
2022/05/27 03:20:12;;;;;;;;;;;10.40;71.80;;;;;;5111151;28;19908;-74
2022/05/27 03:22:56;;;;;;;;;;;10.30;71.90;;;;;;5092669;28;19914;-74
2022/05/27 03:25:43;;;;;;;;;;;10.30;72.10;;;;;;5092680;28;20361;-74
2022/05/27 03:28:14;;;;;;;;;;;10.30;72.10;;;;;;5111032;28;19965;-75
2022/05/27 03:30:40;;;;;;;;;;;10.20;72.00;;;;;;5092468;28;20353;-75
2022/05/27 03:33:14;;;;;;;;;;;10.10;72.20;;;;;;5110627;28;19933;-74
2022/05/27 03:35:43;;;;;;;;;;;10.10;72.30;;;;;;5110967;28;19915;-74
2022/05/27 03:38:13;;;;;;;;;;;10.10;72.40;;;;;;5110780;28;19919;-75
2022/05/27 03:40:42;;;;;;;;;;;10.00;72.30;;;;;;5110637;28;19950;-75
2022/05/27 03:43:09;;;;;;;;;;;10.00;72.20;;;;;;5110539;28;19962;-75
2022/05/27 03:45:47;;;;;;;;;;;10.00;72.20;;;;;;5092354;28;19916;-74
2022/05/27 03:48:12;;;;;;;;;;;10.00;72.30;;;;;;5092029;28;20516;-74
2022/05/27 03:50:38;;;;;;;;;;;10.00;72.40;;;;;;5110464;28;20059;-73
2022/05/27 03:53:03;;;;;;;;;;;9.90;72.50;;;;;;5110385;28;20288;-73
2022/05/27 03:55:29;;;;;;;;;;;9.90;72.50;;;;;;5110338;28;20044;-75
2022/05/27 03:57:54;;;;;;;;;;;9.90;72.60;;;;;;5092091;28;19919;-74
2022/05/27 04:00:20;;;;;;;;;;;9.90;72.60;;;;;;5092030;28;19922;-74
2022/05/27 04:02:46;;;;;;;;;;;9.90;72.70;;;;;;5109968;28;19912;-74
2022/05/27 04:05:13;;;;;;;;;;;9.80;72.70;;;;;;5091740;28;19930;-75
2022/05/27 04:07:39;;;;;;;;;;;9.80;72.80;;;;;;5110141;28;19914;-76
2022/05/27 04:10:05;;;;;;;;;;;9.90;73.00;;;;;;5091823;28;20327;-73
2022/05/27 04:12:30;;;;;;;;;;;9.80;73.00;;;;;;5074748;28;19915;-74
2022/05/27 04:14:56;;;;;;;;;;;9.80;73.10;;;;;;5091788;28;19915;-75
2022/05/27 04:17:27;;;;;;;;;;;9.80;73.20;;;;;;5091768;28;20384;-74
2022/05/27 04:19:53;;;;;;;;;;;9.80;73.20;;;;;;5109872;28;19946;-75
2022/05/27 04:22:19;;;;;;;;;;;9.80;73.30;;;;;;5109697;28;19955;-75
2022/05/27 04:24:45;;;;;;;;;;;9.80;73.30;;;;;;5109759;28;19912;-75
2022/05/27 04:27:12;;;;;;;;;;;9.80;73.40;;;;;;5109725;28;19912;-74
2022/05/27 04:29:41;;;;;;;;;;;9.80;73.40;;;;;;5110274;28;19960;-75
2022/05/27 04:32:08;;;;;;;;;;;9.80;73.40;;;;;;5109710;28;19907;-75
2022/05/27 04:34:33;;;;;;;;;;;9.80;73.40;;;;;;5091498;28;20262;-75
2022/05/27 04:36:59;;;;;;;;;;;9.80;73.50;;;;;;5109593;28;19919;-74
2022/05/27 04:39:25;;;;;;;;;;;9.90;73.60;;;;;;5109631;28;19920;-73
2022/05/27 04:41:50;;;;;;;;;;;9.90;73.50;;;;;;5109501;28;20026;-74
2022/05/27 04:44:16;;;;;;;;;;;9.90;73.60;;;;;;5109719;28;19967;-75
2022/05/27 04:46:44;;;;;;;;;;;9.90;73.70;;;;;;5108816;28;20213;-74
2022/05/27 04:49:50;;;;;;;;;;;9.90;73.70;;;;;;5090928;28;19920;-74
2022/05/27 04:51:55;;;;;;;;;;;9.90;73.70;;;;;;5094091;28;19947;-74
2022/05/27 04:54:21;;;;;;;;;;;10.00;73.60;;;;;;5109087;28;19991;-74
2022/05/27 04:56:46;;;;;;;;;;;10.00;73.50;;;;;;5109110;28;19935;-75
2022/05/27 04:59:12;;;;;;;;;;;10.00;73.50;;;;;;5109285;28;19918;-75
2022/05/27 05:01:37;;;;;;;;;;;10.00;73.50;;;;;;5073900;28;19915;-73
2022/05/27 05:04:03;;;;;;;;;;;10.00;73.50;;;;;;5108982;28;20401;-75
2022/05/27 05:06:29;;;;;;;;;;;10.10;73.70;;;;;;5090836;28;19916;-75
2022/05/27 05:08:54;;;;;;;;;;;10.10;73.80;;;;;;5090859;28;19998;-75
2022/05/27 05:11:20;;;;;;;;;;;10.10;73.80;;;;;;5073633;28;19911;-73
2022/05/27 05:13:45;;;;;;;;;;;10.20;73.90;;;;;;5108724;28;19912;-75
2022/05/27 05:16:11;;;;;;;;;;;10.40;74.00;;;;;;5108557;28;20312;-76
2022/05/27 05:18:37;;;;;;;;;;;10.60;74.10;;;;;;5108822;28;19965;-73
2022/05/27 05:21:02;;;;;;;;;;;10.80;73.90;;;;;;5090324;28;19920;-74
2022/05/27 05:23:28;;;;;;;;;;;11.00;73.80;;;;;;5108611;28;19912;-76
2022/05/27 05:25:53;;;;;;;;;;;11.10;73.60;;;;;;5108670;28;20404;-73
2022/05/27 05:28:19;;;;;;;;;;;11.10;73.50;;;;;;5090211;28;19976;-76
2022/05/27 05:30:45;;;;;;;;;;;11.10;73.50;;;;;;5073186;28;19925;-75
2022/05/27 05:33:10;;;;;;;;;;;11.10;73.50;;;;;;5108458;28;19908;-73
2022/05/27 05:35:36;;;;;;;;;;;11.20;73.60;;;;;;5108605;28;19915;-74
2022/05/27 05:38:03;;;;;;;;;;;11.30;73.50;;;;;;5108706;28;19935;-73
2022/05/27 05:40:29;;;;;;;;;;;11.30;73.40;;;;;;5090082;28;19943;-74
2022/05/27 05:42:54;;;;;;;;;;;11.20;73.40;;;;;;5108324;28;19960;-74
2022/05/27 05:45:20;;;;;;;;;;;11.20;73.40;;;;;;5090111;28;19935;-73
2022/05/27 05:47:46;;;;;;;;;;;11.20;73.40;;;;;;5108317;28;19928;-75
2022/05/27 05:50:12;;;;;;;;;;;11.20;73.50;;;;;;5108253;28;20006;-75
2022/05/27 05:52:38;;;;;;;;;;;11.30;73.70;;;;;;5108177;28;19908;-75
2022/05/27 05:55:04;;;;;;;;;;;11.70;74.50;;;;;;5089704;28;19919;-73
2022/05/27 05:57:29;;;;;;;;;;;12.90;73.80;;;;;;5107625;28;20289;-76
2022/05/27 05:59:55;;;;;;;;;;;14.30;72.20;;;;;;5108952;28;19919;-75
2022/05/27 06:02:21;;;;;;;;;;;15.60;70.50;;;;;;5108010;28;19930;-73
2022/05/27 06:04:47;;;;;;;;;;;16.30;68.40;;;;;;5089960;28;19908;-75
2022/05/27 06:07:13;;;;;;;;;;;16.70;68.00;;;;;;5108280;28;19916;-76
2022/05/27 06:09:38;;;;;;;;;;;17.40;67.40;;;;;;5108330;28;19912;-74
2022/05/27 06:12:04;;;;;;;;;;;18.10;67.00;;;;;;5107991;28;19939;-73
2022/05/27 06:14:29;;;;;;;;;;;18.20;65.90;;;;;;5107762;28;19923;-73
2022/05/27 06:16:55;;;;;;;;;;;17.70;65.70;;;;;;5108137;28;19919;-73
2022/05/27 06:19:21;;;;;;;;;;;17.10;66.40;;;;;;5089618;28;20018;-73
2022/05/27 06:21:47;;;;;;;;;;;16.60;66.70;;;;;;5090578;28;19911;-74
2022/05/27 06:24:12;;;;;;;;;;;16.20;67.50;;;;;;5111779;28;19919;-73
2022/05/27 06:26:38;;;;;;;;;;;16.00;68.30;;;;;;5111781;28;19923;-74
2022/05/27 06:34:32;;;;;;;;;;;15.50;68.60;;;;;;5111650;28;20011;-74
2022/05/27 06:37:04;;;;;;;;;;;15.40;68.60;;;;;;5111132;28;19951;-73
2022/05/27 06:39:31;;;;;;;;;;;15.70;69.30;;;;;;5111704;28;19999;-73
2022/05/27 06:41:57;;;;;;;;;;;16.60;68.40;;;;;;5111248;28;20397;-73
2022/05/27 06:44:22;;;;;;;;;;;17.60;67.50;;;;;;5093198;28;19912;-74
2022/05/27 06:46:51;;;;;;;;;;;18.70;66.80;;;;;;5076351;28;20320;-76
2022/05/27 06:49:17;;;;;;;;;;;19.80;65.60;;;;;;5110941;28;20425;-75
2022/05/27 06:51:43;;;;;;;;;;;20.70;64.60;;;;;;5111080;28;20415;-74
2022/05/27 06:54:09;;;;;;;;;;;21.30;64.10;;;;;;5110781;28;19915;-75
2022/05/27 06:56:39;;;;;;;;;;;22.00;63.40;;;;;;5110836;28;19979;-75
2022/05/27 06:59:06;;;;;;;;;;;22.60;63.00;;;;;;5110674;28;20385;-75
2022/05/27 07:01:31;;;;;;;;;;;23.10;61.80;;;;;;5092524;28;20259;-75
2022/05/27 07:03:57;;;;;;;;;;;23.30;61.20;;;;;;5111037;28;19923;-74
2022/05/27 07:06:24;;;;;;;;;;;23.40;60.30;;;;;;5092916;28;19912;-76
2022/05/27 07:08:49;;;;;;;;;;;23.30;60.00;;;;;;5110270;28;19930;-75
2022/05/27 07:11:15;;;;;;;;;;;23.20;61.10;;;;;;5075063;28;20429;-76
2022/05/27 07:13:41;;;;;;;;;;;23.40;61.40;;;;;;5092257;28;19956;-76
2022/05/27 07:16:07;;;;;;;;;;;23.40;61.20;;;;;;5092306;28;19912;-75
2022/05/27 07:18:32;;;;;;;;;;;23.00;60.70;;;;;;5110444;28;20430;-74
2022/05/27 07:20:59;;;;;;;;;;;23.20;60.10;;;;;;5092157;28;19911;-75
2022/05/27 07:23:24;;;;;;;;;;;23.50;60.80;;;;;;5091908;28;19916;-75
2022/05/27 07:25:50;;;;;;;;;;;24.30;60.50;;;;;;5091931;28;20165;-75
2022/05/27 07:28:15;;;;;;;;;;;25.10;60.70;;;;;;5110971;28;19923;-75
2022/05/27 07:30:41;;;;;;;;;;;25.90;60.90;;;;;;5110500;28;19927;-75
2022/05/27 07:33:06;;;;;;;;;;;26.70;60.00;;;;;;5109716;28;19907;-74
2022/05/27 07:35:32;;;;;;;;;;;27.10;59.30;;;;;;5109924;28;19949;-75
2022/05/27 07:37:58;;;;;;;;;;;26.60;57.10;;;;;;5110011;28;19912;-74
2022/05/27 07:40:23;;;;;;;;;;;26.00;57.40;;;;;;5091938;28;20354;-74
2022/05/27 07:42:49;;;;;;;;;;;25.10;57.20;;;;;;5091297;28;20274;-74
2022/05/27 07:45:16;;;;;;;;;;;23.90;57.30;;;;;;5109806;28;19917;-74
2022/05/27 07:47:42;;;;;;;;;;;22.90;56.80;;;;;;5109520;28;19920;-73
2022/05/27 07:50:09;;;;;;;;;;;22.10;58.80;;;;;;5109657;28;20338;-75
2022/05/27 07:52:34;;;;;;;;;;;21.70;59.90;;;;;;5109529;28;19912;-73
2022/05/27 07:55:00;;;;;;;;;;;21.50;60.30;;;;;;5090872;28;19938;-75
2022/05/27 07:57:27;;;;;;;;;;;21.40;60.90;;;;;;5109240;28;19957;-73
2022/05/27 08:00:07;;;;;;;;;;;22.30;62.10;;;;;;5109262;28;19908;-75
2022/05/27 08:02:33;;;;;;;;;;;23.70;60.70;;;;;;5109224;28;19996;-74
2022/05/27 08:04:59;;;;;;;;;;;25.20;61.10;;;;;;5108786;28;19943;-74
2022/05/27 08:07:26;;;;;;;;;;;26.50;59.90;;;;;;5109312;28;20408;-74
2022/05/27 08:09:52;;;;;;;;;;;27.30;57.80;;;;;;5109264;28;20306;-76
2022/05/27 08:12:17;;;;;;;;;;;27.80;56.20;;;;;;5109398;28;20005;-74
2022/05/27 08:14:43;;;;;;;;;;;27.90;54.50;;;;;;5109204;28;19960;-74
2022/05/27 08:17:09;;;;;;;;;;;27.80;53.70;;;;;;5109354;28;19995;-75
2022/05/27 08:19:35;;;;;;;;;;;27.40;53.40;;;;;;5090571;28;20464;-75
2022/05/27 08:22:00;;;;;;;;;;;27.70;53.90;;;;;;5108745;28;19920;-74
2022/05/27 08:24:26;;;;;;;;;;;27.30;53.50;;;;;;5108588;28;19912;-74
2022/05/27 08:26:51;;;;;;;;;;;26.80;53.70;;;;;;5093471;28;20334;-73
2022/05/27 08:29:17;;;;;;;;;;;26.30;54.40;;;;;;5089731;28;19974;-75
2022/05/27 08:31:43;;;;;;;;;;;25.70;53.70;;;;;;5089518;28;19908;-72
2022/05/27 08:39:39;;;;;;;;;;;24.10;55.20;;;;;;5097926;28;19919;-72
2022/05/27 08:42:23;;;;;;;;;;;23.90;55.10;;;;;;5080429;28;20003;-74
2022/05/27 08:44:55;;;;;;;;;;;24.20;56.00;;;;;;5098720;28;19908;-73
2022/05/27 08:47:39;;;;;;;;;;;25.00;55.80;;;;;;5098676;28;20373;-75
2022/05/27 08:50:08;;;;;;;;;;;25.90;56.40;;;;;;5097243;28;19924;-73
2022/05/27 08:52:39;;;;;;;;;;;27.00;55.60;;;;;;5097150;28;19912;-73
2022/05/27 08:55:06;;;;;;;;;;;27.80;56.20;;;;;;5098194;28;19916;-73
2022/05/27 09:00:20;;;;;;;;;;;29.30;55.20;;;;;;5098394;28;19918;-72
2022/05/27 09:02:45;;;;;;;;;;;29.70;55.60;;;;;;5089891;28;19913;-73
2022/05/27 09:05:16;;;;;;;;;;;30.00;54.70;;;;;;5087258;28;20351;-75
2022/05/27 09:07:47;;;;;;;;;;;29.60;54.40;;;;;;5087007;28;19915;-74
2022/05/27 09:10:18;;;;;;;;;;;29.40;53.50;;;;;;5088044;28;19999;-73
2022/05/27 09:12:47;;;;;;;;;;;29.50;51.70;;;;;;5087640;28;19923;-72
2022/05/27 09:15:32;;;;;;;;;;;29.50;51.60;;;;;;5087749;28;19915;-74
2022/05/27 09:18:01;;;;;;;;;;;29.60;52.50;;;;;;5091723;28;19995;-75
2022/05/27 09:20:49;;;;;;;;;;;29.50;52.40;;;;;;5102946;28;19957;-75
2022/05/27 09:23:33;;;;;;;;;;;29.70;52.70;;;;;;5100012;28;19928;-75
2022/05/27 09:26:11;;;;;;;;;;;29.80;52.60;;;;;;5097137;28;19920;-74
2022/05/27 09:28:52;;;;;;;;;;;30.00;53.00;;;;;;5096184;28;19923;-73
2022/05/27 09:31:23;;;;;;;;;;;29.90;52.60;;;;;;5091287;28;20462;-74
2022/05/27 09:33:52;;;;;;;;;;;29.20;50.80;;;;;;5096959;28;20357;-75
2022/05/27 09:36:19;;;;;;;;;;;28.90;51.30;;;;;;5099268;28;19914;-74
2022/05/27 09:38:51;;;;;;;;;;;28.50;51.00;;;;;;5097350;28;19908;-75
2022/05/27 09:41:23;;;;;;;;;;;28.40;51.30;;;;;;5078888;28;20035;-76
2022/05/27 09:44:07;;;;;;;;;;;28.30;50.20;;;;;;5096280;28;20377;-74
2022/05/27 09:46:33;;;;;;;;;;;28.30;50.90;;;;;;5077814;28;19911;-75
2022/05/27 09:48:59;;;;;;;;;;;28.50;50.50;;;;;;5104608;28;19991;-77
2022/05/27 09:51:26;;;;;;;;;;;29.00;51.50;;;;;;5089758;28;19908;-76
2022/05/27 09:53:53;;;;;;;;;;;29.20;51.30;;;;;;5107959;28;19908;-75
2022/05/27 09:56:34;;;;;;;;;;;28.90;50.60;;;;;;5110098;28;19908;-73
2022/05/27 09:59:16;;;;;;;;;;;28.40;50.40;;;;;;5112569;28;19908;-75
2022/05/27 10:03:29;;;;;;;7.65;1.50;;;27.80;49.60;;;;;;5129409;27;20099;-76
2022/05/27 10:06:03;;;;;;;9.50;1.90;;;28.10;49.00;;;;;;5128693;28;20527;-74
2022/05/27 10:08:33;;;;;;;6.05;1.30;;;28.40;47.60;;;;;;5129120;28;20042;-73
2022/05/27 10:11:26;;;;;;;7.03;1.67;;;28.40;47.10;;;;;;5110747;28;20110;-74
2022/05/27 10:14:10;;;;;;;8.52;1.42;;;27.90;45.90;;;;;;5129532;28;20016;-73
2022/05/27 10:16:38;;;;;;;7.38;1.73;;;27.00;45.50;;;;;;5129420;28;20052;-75
2022/05/27 10:19:21;;;;;;;9.98;3.28;;;26.40;45.70;;;;;;5129022;28;20131;-74
2022/05/27 10:21:51;;;;;;;5.95;1.65;;;26.30;46.50;;;;;;5129110;28;20066;-74
2022/05/27 10:24:39;;;;;;;9.60;1.73;;;27.00;46.90;;;;;;5129231;28;20111;-76
2022/05/27 10:27:16;;;;;;;7.72;1.58;;;27.00;46.20;;;;;;5128443;28;20431;-73
2022/05/27 10:29:59;;;;;;;5.13;1.40;;;26.50;46.20;;;;;;5127519;28;20353;-73
2022/05/27 10:32:36;;;;;;;10.57;1.63;;;26.30;46.80;;;;;;5127216;28;20027;-75
2022/05/27 10:35:07;;;;;;;7.72;1.50;;;27.00;47.10;;;;;;5128013;28;20490;-73
2022/05/27 10:37:59;;;;;;;5.40;1.50;;;27.00;46.40;;;;;;5128881;28;20035;-74
2022/05/27 10:40:40;;;;;;;6.32;1.40;;;27.00;46.20;;;;;;5128274;28;20150;-73
2022/05/27 10:43:29;;;;;;;6.95;1.70;;;27.60;46.90;;;;;;5128331;28;20488;-73
2022/05/27 10:46:00;;;;;;;8.23;2.20;;;28.60;46.00;;;;;;5129122;28;20027;-74
2022/05/27 10:48:39;;;;;;;9.25;1.45;;;28.60;45.50;;;;;;5128478;28;20547;-73
2022/05/27 10:51:26;;;;;;;5.43;1.60;;;28.60;45.10;;;;;;5128616;28;20039;-73
2022/05/27 10:54:12;;;;;;;6.07;1.40;;;28.40;44.90;;;;;;5109794;28;20023;-74
2022/05/27 11:03:21;;;;;;;7.45;1.63;;;27.80;44.40;;;;;;5127475;28;20051;-72
2022/05/27 11:06:26;;;;;;;7.05;1.20;;;27.30;44.80;;;;;;5127952;28;20030;-74
2022/05/27 11:09:04;;;;;;;7.25;1.70;;;27.80;45.50;;;;;;5125688;28;20135;-72
2022/05/27 11:11:39;;;;;;;5.75;1.38;;;28.90;45.70;;;;;;5128080;28;20105;-72
2022/05/27 11:17:16;;;;;;;8.35;1.20;;;30.40;44.70;;;;;;5113564;28;20119;-73
2022/05/27 11:20:01;;;;;;;4.15;1.27;;;30.40;43.50;;;;;;5113317;28;20023;-71
2022/05/27 11:23:00;;;;;;;5.00;1.20;;;29.80;43.60;;;;;;5112406;28;20337;-73
2022/05/27 11:25:36;;;;;;;6.07;1.35;;;30.00;43.90;;;;;;5092905;28;20023;-74
2022/05/27 11:28:32;;;;;;;5.93;1.38;;;30.60;44.00;;;;;;5112284;28;20019;-76
2022/05/27 11:31:11;;;;;;;6.38;1.73;;;31.40;43.50;;;;;;5111571;28;20377;-75
2022/05/27 11:33:55;;;;;;;8.02;1.42;;;32.20;43.20;;;;;;5112023;28;20020;-75
2022/05/27 11:37:02;;;;;;;7.80;1.42;;;32.50;42.40;;;;;;5112053;28;20060;-75
2022/05/27 11:39:58;;;;;;;6.57;1.30;;;32.40;41.80;;;;;;5049264;28;20029;-74
2022/05/27 11:42:43;;;;;;;5.68;1.13;;;32.30;41.60;;;;;;5049247;28;20747;-73
2022/05/27 11:45:23;;;;;;;9.73;2.03;;;32.00;41.50;;;;;;5100381;28;20028;-74
2022/05/27 11:48:02;;;;;;;9.60;1.85;;;31.40;41.50;;;;;;5112859;28;20156;-73
2022/05/27 11:50:56;;;;;;;6.05;1.35;;;30.60;41.70;;;;;;5113194;28;20039;-74
2022/05/27 11:53:37;;;;;;;16.35;10.23;;;30.00;42.20;;;;;;5113616;28;20020;-74
2022/05/27 11:56:03;;;;;;;8.38;1.65;;;30.30;42.60;;;;;;5094455;28;20081;-74
2022/05/27 11:58:39;;;;;;;5.55;2.08;;;30.70;42.40;;;;;;5094609;28;20069;-75
2022/05/27 12:01:30;;;;;;;6.93;1.60;;;30.90;41.30;;;;;;5112332;28;20043;-75
2022/05/27 12:04:06;;;;;;;4.22;1.38;;;30.10;40.90;;;;;;5112149;28;20610;-74
2022/05/27 12:07:13;;;;;;;6.13;2.10;;;30.10;41.90;;;;;;5112375;28;20094;-74
2022/05/27 12:09:48;;;;;;;6.28;1.75;;;30.30;41.70;;;;;;5087154;28;20027;-74
2022/05/27 12:12:21;;;;;;;3.33;1.13;;;30.60;41.30;;;;;;5112804;28;20031;-76
2022/05/27 12:14:55;;;;;;;5.63;1.50;;;30.30;41.00;;;;;;5113972;28;20026;-73
2022/05/27 12:17:30;;;;;;;6.15;1.50;;;29.80;41.00;;;;;;5112424;28;20034;-73
2022/05/27 12:20:00;;;;;;;6.13;1.67;;;29.40;41.60;;;;;;5113266;28;20049;-76
2022/05/27 12:22:32;;;;;;;4.47;1.33;;;29.50;42.20;;;;;;5113185;28;20027;-76
2022/05/27 12:25:02;;;;;;;4.90;1.33;;;29.60;42.10;;;;;;5112158;28;20027;-74
2022/05/27 12:27:27;;;;;;;5.10;1.80;;;29.50;41.90;;;;;;5094189;28;20020;-74
2022/05/27 12:29:54;;;;;;;4.15;1.13;;;29.60;42.50;;;;;;5112247;28;20077;-74
2022/05/27 12:32:23;;;;;;;7.22;2.00;;;29.80;42.30;;;;;;5093812;28;20053;-73
2022/05/27 12:34:49;;;;;;;4.90;1.33;;;30.10;42.10;;;;;;5112267;28;20669;-75
2022/05/27 12:37:24;;;;;;;3.10;1.23;;;30.00;41.60;;;;;;5112480;28;20020;-74
2022/05/27 12:40:14;;;;;;;5.73;1.50;;;29.90;41.80;;;;;;5112474;28;20024;-74
2022/05/27 12:42:42;;;;;;;6.00;1.20;;;29.90;42.10;;;;;;5111419;28;20056;-73
2022/05/27 12:45:44;;;;;;;5.55;1.77;;;30.10;42.20;;;;;;5094526;28;20036;-74
2022/05/27 12:48:12;;;;;;;7.35;2.03;;;30.30;42.00;;;;;;5112967;28;20145;-74
2022/05/27 12:50:40;;;;;;;5.85;1.63;;;30.50;41.90;;;;;;5112430;28;20107;-73
2022/05/27 12:53:21;;;;;;;9.40;2.70;;;30.40;41.30;;;;;;5112505;28;20474;-73
2022/05/27 13:01:42;;;;;;;10.88;1.80;;;28.60;41.30;;;;;;5111969;28;20455;-75
2022/05/27 13:04:27;;;;;;;7.47;1.95;;;28.40;42.30;;;;;;5093848;28;20067;-74
2022/05/27 13:07:05;;;;;;;7.50;1.50;;;28.20;42.20;;;;;;5079520;28;20032;-74
2022/05/27 13:09:43;;;;;;;7.43;1.77;;;27.70;42.80;;;;;;5112045;28;20107;-75
2022/05/27 13:12:30;;;;;;;5.03;1.45;;;27.90;43.20;;;;;;5112243;28;20469;-75
2022/05/27 13:15:06;;;;;;;6.93;1.52;;;27.90;43.30;;;;;;5112141;28;20417;-74
2022/05/27 13:17:35;;;;;;;;;;;27.70;43.00;;;;;;5093573;28;20175;-73
2022/05/27 13:20:19;;;;;;;6.25;1.05;;;27.30;42.90;;;;;;5093745;28;19920;-74
2022/05/27 13:23:16;;;;;;;9.95;1.63;;;26.60;42.80;;;;;;5112096;28;20030;-74
2022/05/27 13:25:49;;;;;;;;;;;26.00;43.10;;;;;;5112231;28;20027;-74
2022/05/27 13:28:36;;;;;;;9.60;2.65;;;25.60;43.20;;;;;;5111618;28;19904;-72
2022/05/27 13:31:02;;;;;;;5.35;1.20;;;25.10;43.40;;;;;;5111657;28;20032;-72
2022/05/27 13:33:34;;;;;;;7.93;1.83;;;24.60;43.90;;;;;;5111838;28;20011;-74
2022/05/27 13:36:01;;;;;;;5.55;1.25;;;24.20;44.60;;;;;;5111509;28;20024;-72
2022/05/27 13:38:44;;;;;;;4.80;1.15;;;24.20;44.70;;;;;;5111766;28;20027;-73
2022/05/27 13:41:14;;;;;;;5.50;1.42;;;24.30;44.40;;;;;;5111068;28;20110;-74
2022/05/27 13:43:41;;;;;;;6.00;1.27;;;24.40;44.20;;;;;;5111190;28;20470;-72
2022/05/27 13:46:14;;;;;;;4.70;1.17;;;24.30;44.10;;;;;;5111013;28;20508;-72
2022/05/27 13:48:52;;;;;;;4.45;1.10;;;24.10;44.60;;;;;;5110059;28;20027;-73
2022/05/27 13:51:21;;;;;;;5.82;2.60;;;24.00;44.80;;;;;;5109120;28;20064;-73
2022/05/27 13:53:48;;;;;;;11.20;3.45;;;24.00;45.00;;;;;;5108084;28;20079;-72
2022/05/27 13:56:15;;;;;;;10.07;1.50;;;24.10;45.00;;;;;;5090390;28;20390;-73
2022/05/27 13:58:52;;;;;;;4.57;1.50;;;24.20;45.20;;;;;;5109005;28;20047;-74
2022/05/27 14:01:24;;;;;;;8.55;2.15;;;24.20;45.00;;;;;;5091061;28;20027;-72
2022/05/27 14:04:12;;;;;;;9.18;1.60;;;24.10;44.90;;;;;;5110511;28;20048;-71
2022/05/27 14:06:39;;;;;;;9.13;2.85;;;23.80;45.10;;;;;;5078776;28;20031;-71
2022/05/27 14:09:33;;;;;;;7.60;1.63;;;23.70;45.20;;;;;;5110792;28;20119;-72
2022/05/27 14:12:05;;;;;;;5.70;1.33;;;23.50;45.50;;;;;;5089202;28;20031;-72
2022/05/27 14:14:43;;;;;;;5.13;1.50;;;23.40;45.80;;;;;;5110440;28;20077;-72
2022/05/27 14:17:22;;;;;;;6.30;1.65;;;23.40;46.00;;;;;;5092040;28;20443;-72
2022/05/27 14:19:59;;;;;;;6.30;1.63;;;23.50;46.00;;;;;;5091963;28;20028;-71
2022/05/27 14:22:44;;;;;;;7.95;1.90;;;23.40;45.60;;;;;;5110826;28;20377;-71
2022/05/27 14:25:33;;;;;;;7.90;1.60;;;23.10;46.10;;;;;;5110597;28;20473;-71
2022/05/27 14:28:08;;;;;;;4.93;1.27;;;23.10;46.50;;;;;;5092320;28;20466;-72
2022/05/27 14:30:39;;;;;;;6.28;1.58;;;23.10;46.30;;;;;;5110717;28;20377;-74
2022/05/27 14:33:24;;;;;;;8.50;1.83;;;23.00;46.20;;;;;;5110132;28;20032;-73
2022/05/27 14:35:50;;;;;;;9.75;1.58;;;22.90;46.60;;;;;;5110843;28;20092;-73
2022/05/27 14:38:17;;;;;;;;;;;22.90;46.70;;;;;;5076057;28;20114;-73
2022/05/27 14:40:46;;;;;;;5.50;1.55;;;22.90;46.80;;;;;;5110885;28;19903;-72
2022/05/27 14:43:35;;;;;;;6.13;1.05;;;23.00;46.60;;;;;;5091859;28;20016;-72
2022/05/27 14:46:21;;;;;;;6.82;2.13;;;22.90;46.40;;;;;;5111075;28;20088;-73
2022/05/27 14:48:58;;;;;;;7.45;1.50;;;22.90;46.90;;;;;;5094135;28;20077;-72